NWS Home NWS Lubbock West Texas Mesonet Latest Conditions as of 1238 AM, Sun May 29, 2016

Latest   N   C   S   Daily Sum   3hrΔ   24hrΔ   Soil Data 
Site Map   24hr Precip   72hr Precip   Google Plot


Station Time of Last Temp Dew Pt. RH Wind Direction Wind Speed Wind Gust Max Wind Max Temp Min Temp Max RH Min RH Altimeter 1HR Rain Today's Rain Solar Rad
Abernathy 5ENE  12:30 AM 63 52 69% SE911 12 mph 110° @ 1220 AM 64 63 69 66 30.06" 0 0 0
Aiken 3WSW  12:30 AM 66 52 61% E1115 15 mph 107° @ 1230 AM 67 66 61 58 30.08" 0 0 0
Amarillo 15NNW   12:30 AM 67 49 52% SE1214 20 mph 143° @ 1222 AM 68 67 54 51 30.06" 0 0 0
Amarillo 9NNE  12:30 AM 64 50 60% SE911 19 mph 141° @ 1209 AM 65 64 60 58 30.06" 0 0 0
Amherst 1NE  12:30 AM 66 50 58% E1115 19 mph 102° @ 1210 AM 67 66 58 56 30.06" 0 0 0
Andrews 2E  12:30 AM 73 57 59% SE710 12 mph 146° @ 1215 AM 73 73 59 52 30.02" 0 0 0
Anton 6SSW  12:30 AM 68 53 60% E1114 14 mph 98° @ 1230 AM 69 67 60 56 30.05" 0 0 0
Big Bend NP - Persimmon Gap  12:30 AM 78 65 63% N1315 18 mph 10° @ 1220 AM 79 78 63 62 29.95" 0 0 0
Big Lake 1WNW  12:30 AM 71 61 69% SE1014 15 mph 108° @ 1206 AM 73 71 71 68 30.01" 0 0 0
Bootleg 11WNW  12:30 AM 58 47 67% SE1113 14 mph 140° @ 1221 AM 59 57 67 62 30.12" 0 0 0
Boys Ranch 1WSW  12:30 AM 61 50 65% E67 7 mph 81° @ 1220 AM 62 61 66 65 30.06" 0 0 0
Brownfield 2S  12:30 AM 65 54 68% SE1113 14 mph 121° @ 1225 AM 66 65 70 68 30.04" 0 0 0
Canadian 6E  12:30 AM 62 52 69% E910 11 mph 103° @ 1216 AM 63 62 69 66 30.03" 0 0 0
Caprock Canyons State Park  12:30 AM 65 54 68% S78 8 mph 180° @ 1229 AM 66 64 68 64 30.06" 0 0 0
Childress 2NNE  12:30 AM 65 58 82% SE78 11 mph 120° @ 1205 AM 67 65 82 77 30.02" 0 0 0
Clarendon 2WSW  12:30 AM 64 53 68% SE912 12 mph 126° @ 1220 AM 64 62 70 68 30.06" 0 0 0
Claude 12SW  12:30 AM 61 49 64% E78 10 mph 108° @ 1201 AM 67 61 64 52 30.08" 0 0 0
Clyde 2WNW  12:30 AM 75 70 82% SE911 16 mph 122° @ 1215 AM 76 75 83 80 30.02" 0 0 0
Coyanosa 2N  12:30 AM 76 66 73% E810 11 mph 102° @ 1202 AM 77 76 73 68 29.96" 0 0 0
Dell City  12:25 AM 71 38 30% S610 10 mph 175° @ 1225 AM 72 69 30 20 29.99" 0 0 0
Denver City 7WNW  12:30 AM 64 47 55% E911 12 mph 98° @ 1205 AM 64 62 58 55 30.04" 0 0 0
Dimmitt 2NE  12:30 AM 63 48 61% SE1013 15 mph 114° @ 1210 AM 64 63 61 58 30.08" 0 0 0
Dora NM 2SW  12:30 AM 62 34 35% E1315 18 mph 114° @ 1220 AM 64 62 35 28 30.07" 0 0 0
Dozier 3W  12:30 AM 66 56 69% NE33 7 mph 70° @ 1221 AM 67 66 70 64 30.05" 0 0 0
Floydada 2NNE  12:30 AM 62 53 74% E910 11 mph 96° @ 1205 AM 62 61 74 73 30.06" 0 0 0
Fluvanna 3WNW  12:30 AM 68 56 67% NE1114 20 mph 333° @ 1205 AM 68 63 83 65 30.07" 0 0 0
Fort Chadbourne  12:30 AM 69 62 77% NE34 15 mph 155° @ 1203 AM 70 69 77 73 30.00" 0 0 0
Fort Lancaster  12:30 AM 80 68 67% SE1014 17 mph 130° @ 1201 AM 80 80 67 67 29.94" 0 0 0
Fort McKavett  12:30 AM 69 63 82% SE47 10 mph 110° @ 1201 AM 69 69 84 82 30.03" 0 0 0
Friona 2NE  12:30 AM 64 49 59% SE1316 23 mph 134° @ 1215 AM 65 64 59 56 30.09" 0 0 0
Gail 2ESE  12:30 AM 67 60 79% E1319 19 mph 68° @ 1230 AM 67 65 88 79 30.04" 0 0 0
Goodlett 3W  12:30 AM 69 60 75% SE44 7 mph 118° @ 1205 AM 69 68 77 75 30.00" 0 0 0
Goodnight  12:30 AM 64 51 64% SE910 10 mph 136° @ 1221 AM 64 63 66 62 30.09" 0 0 0
Graham 5SSW  12:30 AM 67 51 56% SE1114 29 mph 37° @ 1210 AM 68 64 67 53 30.04" 0 0 0
Guadalupe Mtns Natl Park  12:30 AM 68 53 61% N57 12 mph 24° @ 1209 AM 70 68 61 55 30.15" 0 0 0
Guthrie 10WSW  12:30 AM 69 55 62% W15 16 mph 133° @ 1205 AM 71 69 62 57 30.02" 0 0 0
Hart 3N  12:30 AM 64 49 60% E1114 14 mph 103° @ 1210 AM 64 64 60 59 30.08" 0 0 0
Haskell 1NW  12:30 AM 74 54 52% SW1017 25 mph 202° @ 1215 AM 74 71 73 52 30.04" 0.02 0.02 0
Hereford 2NW  12:30 AM 66 46 51% SE1019 20 mph 130° @ 1225 AM 66 66 51 50 30.08" 0 0 0
Hobbs NM 5NW  12:30 AM 72 57 59% S911 14 mph 146° @ 1201 AM 73 72 59 53 30.06" 0 0 0
Jayton 1SSE  12:30 AM 71 55 56% NW611 26 mph 144° @ 1205 AM 71 71 65 55 29.99" 0 0 0
Junction 1SSW  12:30 AM 69 64 84% NE11 10 mph 51° @ 1203 AM 70 69 84 78 30.02" 0 0 0
Knox City 3NW  12:30 AM 73 62 72% S79 20 mph 126° @ 1205 AM 75 73 72 60 30.04" 0 0 0
Lake Alan Henry 1NW  12:30 AM 65 60 83% NE2022 26 mph 351° @ 1228 AM 68 64 84 62 30.07" 0.33 0.33 0
Lamesa 2SE  12:30 AM 68 58 73% E1321 21 mph 77° @ 1225 AM 68 65 78 73 30.04" 0 0 0
Levelland 4S  12:30 AM 67 54 63% SE1317 17 mph 84° @ 1220 AM 69 67 64 53 30.05" 0 0 0
Lomax 1SSE  12:30 AM 75 64 68% SE1619 26 mph 142° @ 1205 AM 77 75 68 67 29.99" 0 0 0
McLean 1E  12:30 AM 63 51 66% SE68 11 mph 125° @ 1205 AM 65 63 66 61 30.06" 0 0 0
Memphis 1NE  12:30 AM 65 57 76% NE23 5 mph 30° @ 1215 AM 65 65 76 74 30.03" 0 0 0
Menard 2NW   12:30 AM 69 64 83% N22 5 mph 168° @ 1214 AM 70 69 84 79 30.02" 0 0 0
Mertzon 3NNE  12:30 AM 72 61 68% SE810 15 mph 134° @ 1228 AM 72 72 68 66 30.01" 0 0 0
Muleshoe 2SSW  12:30 AM 65 50 60% E1418 18 mph 104° @ 1230 AM 65 64 62 60 30.07" 0 0 0
Northfield 1S  12:30 AM 69 59 72% SE911 11 mph 154° @ 1225 AM 69 68 74 72 30.02" 0 0 0
O'Donnell 1N  12:30 AM 66 50 58% E1519 19 mph 87° @ 1225 AM 66 63 70 58 30.04" 0 0 0
Odell 4ENE  12:30 AM 73 65 76% E78 11 mph 87° @ 1203 AM 74 73 76 71 30.01" 0 0 0
Olton 6S  12:30 AM 64 50 61% E1112 14 mph 104° @ 1205 AM 65 64 61 59 30.06" 0 0 0
Paducah 10SW  12:30 AM 68 56 66% S912 14 mph 188° @ 1220 AM 69 68 69 66 30.03" 0 0 0
Palo Duro Canyon SP Floor  12:30 AM 69 49 49% SE68 9 mph 128° @ 1203 AM 70 69 49 46 30.05" 0 0 0
Palo Duro Canyon State Park Rim  12:30 AM 68 48 49% SE68 16 mph 143° @ 1203 AM 69 68 49 47 30.09" 0 0 0
Pampa 2E  12:30 AM 59 52 80% SE78 9 mph 120° @ 1215 AM 59 59 80 79 30.07" 0 0 0
Panhandle 1SSW  12:30 AM 65 51 60% SE1416 17 mph 144° @ 1225 AM 66 64 63 60 30.09" 0 0 0
Plains 3N  12:30 AM 67 53 64% E1318 18 mph 109° @ 1230 AM 67 67 64 59 30.05" 0 0 0
Plainview 1S  12:30 AM 66 53 63% E811 13 mph 103° @ 1210 AM 67 66 63 59 30.06" 0 0 0
Post 1NE  12:30 AM 63 53 71% S68 14 mph 105° @ 1205 AM 64 63 75 69 30.02" 0.23 0.23 4
Ralls 1SE  12:30 AM 71 52 53% SE1216 20 mph 117° @ 1205 AM 72 71 53 50 30.06" 0 0 0
Roaring Springs 3N  12:30 AM 68 56 67% SE912 12 mph 155° @ 1230 AM 68 68 67 67 30.06" 0 0 0
San Angelo 7NW  12:30 AM 74 60 63% SE1217 17 mph 147° @ 1230 AM 75 74 64 62 29.98" 0 0 0
Seagraves 1SW  12:30 AM 69 56 66% E1117 19 mph 93° @ 1210 AM 70 69 66 61 30.04" 0 0 0
Seminole 2NNE  12:30 AM 71 53 54% E1216 16 mph 97° @ 1230 AM 71 71 54 47 30.04" 0 0 0
Seymour 3NW  12:30 AM 66 62 87% SW23 5 mph 116° @ 1210 AM 67 66 87 85 30.02" 0 0 0
Sierra Blanca 1SSE  12:30 AM 75 10 8% SE33 5 mph 134° @ 1225 AM 76 72 9 8 30.05" 0 0 0
Silverton 7ESE  12:30 AM 63 52 68% E1012 13 mph 112° @ 1210 AM 65 63 68 64 30.07" 0 0 0
Slaton 2NE  12:30 AM 66 51 60% E815 20 mph 154° @ 1210 AM 67 66 61 58 30.05" 0 0 0
Snyder 3E  12:30 AM 61 59 96% E1319 20 mph 75° @ 1210 AM 61 61 98 96 30.04" 0.01 0.01 0
Spur 1W  12:30 AM 69 54 60% N66 9 mph 342° @ 1225 AM 70 69 60 55 30.08" 0 0 0
St. Lawrence 5SW  12:30 AM 73 62 71% SE1417 18 mph 110° @ 1225 AM 74 73 77 71 30.01" 0 0 0
Sundown 8WSW  12:30 AM 66 53 63% SE1013 14 mph 119° @ 1215 AM 66 66 63 60 30.05" 0 0 0
Sweetwater 11SW   12:30 AM 63 62 97% NE26 32 mph 323° @ 1214 AM 73 63 97 74 30.10" 0.42 0.42 0
Tarzan 2WNW  12:30 AM 69 61 75% NE1314 21 mph 67° @ 1217 AM 75 69 81 67 30.03" 0 0 0
Tatum NM 2SW  12:30 AM 54 34 48% SE78 11 mph 117° @ 1210 AM 56 53 49 42 30.06" 0 0 0
Throckmorton 1SW  12:30 AM 75 70 83% SE56 12 mph 111° @ 1208 AM 77 75 83 67 30.05" 0 0 0
Tulia 2ENE  12:30 AM 60 51 72% SE79 10 mph 107° @ 1205 AM 61 60 72 70 30.07" 0 0 0
Turkey 2WSW  12:30 AM 66 55 69% S67 7 mph 171° @ 1225 AM 67 66 69 65 30.04" 0 0 0
Vigo Park  12:30 AM 65 50 59% SE1214 17 mph 121° @ 1222 AM 66 65 59 56 30.08" 0 0 0
Wall 1E  12:30 AM 71 62 74% SE914 14 mph 134° @ 1230 AM 71 70 81 74 29.99" 0 0 0
Weinert 2NNE  12:30 AM 73 61 67% E23 19 mph 146° @ 1217 AM 73 70 77 67 30.01" 0 0 0
Welch  12:30 AM 67 55 65% E1315 17 mph 96° @ 1226 AM 69 67 68 65 30.05" 0 0 0
White River Lake 6NW  12:30 AM 68 55 66% SE1924 38 mph 112° @ 1210 AM 70 68 66 61 30.02" 0 0 0
Wolfforth 6SSW  12:30 AM 64 54 71% SE1013 15 mph 127° @ 1215 AM 64 63 78 71 30.04" 0 0 0

West Texas Mesonet Home   Site Map/Menu  NWS Lubbock Soil Data  Daily Summary Page  24hr Precip  72hr Precip  Google Plot